Time;durP1;ratioP1;P1;durP2;ratioP2;P2;SDS_P1;SDS_P2;PMS_P1;PMS_P2;Temp;Humidity;BMP_temperature;BMP_pressure;BME280_temperature;BME280_humidity;BME280_pressure;Samples;Min_cycle;Max_cycle;Signal;HPM_P1;HPM_P2
2022/08/11 00:00:06;;;;;;;1.70;1.40;;;28.10;65.00;;;;;;6370111;22;20002;-75
2022/08/11 00:02:35;;;;;;;1.58;1.13;;;28.10;63.90;;;;;;6369694;22;20510;-74
2022/08/11 00:05:05;;;;;;;3.00;1.30;;;28.10;63.40;;;;;;6371220;22;20001;-73
2022/08/11 00:07:31;;;;;;;;;;;28.10;63.00;;;;;;6370547;22;20005;-76
2022/08/11 00:09:58;;;;;;;1.77;1.38;;;28.10;62.70;;;;;;6370708;22;19898;-76
2022/08/11 00:12:24;;;;;;;2.92;1.40;;;28.10;62.20;;;;;;6342315;22;20034;-78
2022/08/11 00:14:58;;;;;;;3.47;1.67;;;28.10;61.70;;;;;;6371057;22;20014;-76
2022/08/11 00:17:31;;;;;;;3.60;1.67;;;28.20;61.20;;;;;;6340768;22;20098;-75
2022/08/11 00:20:16;;;;;;;2.80;1.70;;;28.20;60.90;;;;;;6369701;22;20014;-75
2022/08/11 00:22:43;;;;;;;6.32;1.60;;;28.20;60.40;;;;;;6369806;22;20460;-75
2022/08/11 00:25:12;;;;;;;2.08;1.50;;;28.20;60.10;;;;;;6370049;22;19994;-75
2022/08/11 00:27:39;;;;;;;3.03;1.55;;;28.20;59.70;;;;;;6370619;22;19998;-76
2022/08/11 00:30:07;;;;;;;2.92;1.63;;;28.20;58.80;;;;;;6370950;22;20002;-76
2022/08/11 00:32:34;;;;;;;2.50;1.35;;;28.20;58.10;;;;;;6369559;22;20010;-76
2022/08/11 00:35:01;;;;;;;2.88;1.15;;;28.20;57.40;;;;;;6370245;22;20073;-75
2022/08/11 00:37:27;;;;;;;3.08;1.65;;;28.20;56.60;;;;;;6371029;22;20006;-76
2022/08/11 00:39:55;;;;;;;1.30;1.20;;;28.20;55.70;;;;;;6370797;22;20420;-75
2022/08/11 00:43:00;;;;;;;3.65;1.60;;;28.20;55.10;;;;;;6369266;22;20021;-75
2022/08/11 00:45:45;;;;;;;2.20;1.40;;;28.20;55.10;;;;;;6369816;22;20439;-77
2022/08/11 00:48:23;;;;;;;3.03;2.00;;;28.20;54.10;;;;;;6342152;22;20055;-76
2022/08/11 00:51:38;;;;;;;1.63;1.52;;;28.10;52.80;;;;;;6369358;22;20033;-78
2022/08/11 00:54:22;;;;;;;5.40;1.30;;;28.00;53.70;;;;;;6255981;22;20004;-78
2022/08/11 00:57:13;;;;;;;2.58;1.60;;;27.90;53.40;;;;;;6341610;22;20016;-76
2022/08/11 01:00:03;;;;;;;3.80;1.60;;;27.80;53.60;;;;;;6368475;22;20080;-76
2022/08/11 01:03:06;;;;;;;2.28;1.20;;;27.80;52.90;;;;;;6357675;22;20006;-74
2022/08/11 01:05:34;;;;;;;1.45;1.20;;;27.70;53.60;;;;;;6369878;22;20005;-75
2022/08/11 01:08:19;;;;;;;1.77;1.27;;;27.70;53.60;;;;;;6370347;22;19995;-75
2022/08/11 01:11:12;;;;;;;1.80;1.20;;;27.80;53.40;;;;;;6368358;22;20005;-75
2022/08/11 01:13:47;;;;;;;3.25;1.27;;;27.80;52.80;;;;;;6370096;22;19994;-75
2022/08/11 01:16:50;;;;;;;3.17;1.35;;;27.70;52.80;;;;;;6369707;22;19999;-75
2022/08/11 01:19:16;;;;;;;1.40;1.20;;;27.70;52.30;;;;;;6368240;22;20007;-74
2022/08/11 01:22:16;;;;;;;1.95;1.38;;;27.70;52.30;;;;;;6369820;22;19990;-75
2022/08/11 01:25:00;;;;;;;2.10;1.27;;;27.70;51.70;;;;;;6370059;22;19998;-75
2022/08/11 01:27:41;;;;;;;1.88;1.33;;;27.70;51.50;;;;;;6341244;22;20009;-76
2022/08/11 01:30:26;;;;;;;2.05;1.50;;;27.70;52.00;;;;;;6368590;22;19998;-76
2022/08/11 01:33:18;;;;;;;2.53;1.25;;;27.70;51.10;;;;;;6368576;22;20002;-76
2022/08/11 01:35:59;;;;;;;2.30;1.30;;;27.70;51.00;;;;;;6370068;22;20028;-76
2022/08/11 01:39:09;;;;;;;1.35;1.10;;;27.70;50.90;;;;;;6368763;22;20030;-76
2022/08/11 01:44:53;;;;;;;1.92;1.27;;;27.70;50.60;;;;;;6369225;22;20056;-76
2022/08/11 01:50:34;;;;;;;3.63;1.35;;;27.70;50.30;;;;;;6369422;22;20029;-76
2022/08/11 01:53:37;;;;;;;2.00;1.27;;;27.70;49.60;;;;;;6367606;22;19998;-76
2022/08/11 01:56:26;;;;;;;2.55;1.20;;;27.60;49.70;;;;;;6369325;22;20496;-76
2022/08/11 01:59:19;;;;;;;1.67;1.20;;;27.60;49.80;;;;;;6368399;22;19998;-77
2022/08/11 02:01:59;;;;;;;2.20;1.05;;;27.60;49.40;;;;;;6369286;22;19999;-77
2022/08/11 02:04:37;;;;;;;2.50;0.90;;;27.60;49.70;;;;;;6367599;22;20005;-76
2022/08/11 02:07:30;;;;;;;1.75;1.20;;;27.60;50.00;;;;;;6369960;22;19999;-76
2022/08/11 02:11:29;;;;;;;1.77;1.23;;;27.60;49.80;;;;;;6369704;22;19994;-76
2022/08/11 02:13:04;;;;;;;1.10;0.90;;;27.60;49.40;;;;;;6368400;22;20014;-75
2022/08/11 02:15:45;;;;;;;3.15;1.50;;;27.50;49.30;;;;;;6369716;22;19994;-76
2022/08/11 02:18:11;;;;;;;6.88;1.30;;;27.60;49.50;;;;;;6368650;22;20006;-76
2022/08/11 02:23:40;;;;;;;1.90;1.17;;;27.50;49.00;;;;;;6369617;22;20062;-77
2022/08/11 02:26:35;;;;;;;3.80;1.20;;;27.50;48.90;;;;;;6342237;22;20002;-78
2022/08/11 02:29:03;;;;;;;1.73;1.00;;;27.60;49.10;;;;;;6367233;22;20006;-77
2022/08/11 02:34:45;;;;;;;2.22;1.50;;;27.50;48.70;;;;;;6369290;22;20033;-78
2022/08/11 02:37:23;;;;;;;2.28;1.10;;;27.40;48.50;;;;;;6368421;22;20034;-77
2022/08/11 02:39:57;;;;;;;1.20;1.05;;;27.30;48.80;;;;;;6370446;22;19994;-76
2022/08/11 02:42:29;;;;;;;3.42;1.52;;;27.20;49.00;;;;;;6371421;22;20018;-76
2022/08/11 02:45:28;;;;;;;2.97;1.30;;;27.20;49.00;;;;;;6372199;22;20074;-77
2022/08/11 02:51:18;;;;;;;1.70;1.00;;;27.00;49.30;;;;;;6370753;22;20066;-78
2022/08/11 02:53:53;;;;;;;2.17;1.10;;;27.00;49.50;;;;;;6370699;22;20432;-78
2022/08/11 02:56:50;;;;;;;2.70;1.40;;;26.90;49.60;;;;;;6369717;22;20078;-77
2022/08/11 03:02:30;;;;;;;3.10;1.50;;;26.80;49.90;;;;;;6369429;22;20338;-76
2022/08/11 03:05:12;;;;;;;2.05;1.10;;;26.80;50.10;;;;;;6371349;22;19994;-78
2022/08/11 03:08:02;;;;;;;2.08;1.30;;;26.90;50.30;;;;;;6371019;22;20435;-78
2022/08/11 03:10:41;;;;;;;1.63;1.10;;;26.90;50.50;;;;;;6370686;22;20006;-77
2022/08/11 03:16:46;;;;;;;1.33;1.20;;;27.00;50.50;;;;;;6370334;22;20375;-77
2022/08/11 03:19:15;;;;;;;2.85;1.17;;;27.00;50.20;;;;;;6371808;22;20399;-77
2022/08/11 03:22:01;;;;;;;3.25;1.33;;;27.00;50.10;;;;;;6371117;22;19994;-77
2022/08/11 03:24:51;;;;;;;2.20;1.60;;;27.00;49.90;;;;;;6295798;22;19998;-78
2022/08/11 03:27:35;;;;;;;2.20;1.17;;;27.00;49.70;;;;;;6371481;22;20006;-77
2022/08/11 03:30:15;;;;;;;3.03;1.10;;;27.00;49.70;;;;;;6370380;22;20086;-77
2022/08/11 03:34:00;;;;;;;1.38;1.23;;;27.00;49.60;;;;;;6370817;22;20383;-76
2022/08/11 03:35:40;;;;;;;2.17;1.20;;;27.00;49.80;;;;;;6369255;22;20014;-77
2022/08/11 03:38:13;;;;;;;2.65;1.20;;;26.90;49.60;;;;;;6370680;22;20377;-77
2022/08/11 03:44:09;;;;;;;1.92;1.23;;;26.90;49.60;;;;;;6369707;22;20049;-76
2022/08/11 03:46:56;;;;;;;2.95;1.20;;;26.80;49.20;;;;;;6371275;22;19999;-76
2022/08/11 03:49:59;;;;;;;2.10;1.10;;;26.60;49.40;;;;;;6369711;22;20074;-76
2022/08/11 03:52:37;;;;;;;9.20;1.40;;;26.60;49.50;;;;;;6369974;22;20047;-76
2022/08/11 03:55:39;;;;;;;7.35;1.38;;;26.70;49.80;;;;;;6369870;22;20074;-76
2022/08/11 03:58:21;;;;;;;2.20;1.27;;;26.70;49.80;;;;;;6371371;22;20010;-76
2022/08/11 04:00:57;;;;;;;3.05;1.38;;;26.80;49.80;;;;;;6369937;22;20041;-76
2022/08/11 04:03:26;;;;;;;5.10;1.38;;;26.80;49.50;;;;;;6371198;22;19998;-76
2022/08/11 04:06:35;;;;;;;2.38;1.38;;;26.80;49.30;;;;;;6369860;22;20074;-76
2022/08/11 04:09:00;;;;;;;1.77;1.38;;;26.80;49.30;;;;;;6370717;22;19998;-78
2022/08/11 04:11:35;;;;;;;2.10;1.25;;;26.90;49.20;;;;;;6343178;22;20005;-78
2022/08/11 04:17:31;;;;;;;1.52;0.82;;;26.90;49.00;;;;;;6370892;22;20098;-78
2022/08/11 04:20:16;;;;;;;2.30;1.27;;;26.90;49.10;;;;;;6370959;22;20316;-79
2022/08/11 04:23:02;;;;;;;1.90;1.40;;;26.90;49.00;;;;;;6370927;22;20396;-76
2022/08/11 04:25:48;;;;;;;1.30;0.95;;;26.90;48.60;;;;;;6371039;22;19994;-77
2022/08/11 04:28:52;;;;;;;1.70;1.38;;;26.90;48.30;;;;;;6369389;22;20002;-77
2022/08/11 04:31:37;;;;;;;2.03;1.33;;;26.90;48.10;;;;;;6366900;22;20445;-76
2022/08/11 04:34:15;;;;;;;3.33;1.23;;;26.80;48.00;;;;;;6341564;22;20003;-76
2022/08/11 04:39:57;;;;;;;1.58;0.98;;;26.90;48.60;;;;;;6370228;22;20480;-76
2022/08/11 04:43:19;;;;;;;1.48;1.08;;;26.90;48.10;;;;;;6369760;22;20022;-76
2022/08/11 04:46:22;;;;;;;1.17;1.08;;;26.80;47.80;;;;;;6369742;22;20006;-77
2022/08/11 05:01:41;;;;;;;1.25;0.95;;;26.80;48.50;;;;;;6368261;22;20143;-77
2022/08/11 05:07:34;;;;;;;2.08;1.15;;;26.80;48.40;;;;;;6370843;22;20013;-76
2022/08/11 05:10:06;;;;;;;1.80;1.30;;;26.80;48.80;;;;;;6369904;22;20320;-81
2022/08/11 05:12:54;;;;;;;3.80;1.20;;;26.80;48.50;;;;;;6369850;22;19998;-80
2022/08/11 05:36:04;;;;;;;2.85;1.15;;;26.80;47.80;;;;;;6365976;22;20055;-75
2022/08/11 05:58:10;;;;;;;2.33;1.15;;;26.90;48.20;;;;;;6368979;22;20016;-83
2022/08/11 06:00:44;;;;;;;3.50;1.20;;;26.90;47.80;;;;;;6368182;22;20448;-76
2022/08/11 06:03:19;;;;;;;2.35;1.17;;;27.00;48.60;;;;;;6370166;22;19995;-77
2022/08/11 06:05:45;;;;;;;2.03;1.05;;;27.10;49.00;;;;;;6370163;22;20021;-76
2022/08/11 06:08:13;;;;;;;2.20;1.17;;;27.20;49.00;;;;;;6370081;22;19999;-75
2022/08/11 06:10:41;;;;;;;1.50;1.05;;;27.30;48.10;;;;;;6370005;22;20073;-76
2022/08/11 06:13:08;;;;;;;1.48;1.00;;;27.30;47.30;;;;;;6369363;22;20374;-76
2022/08/11 06:15:44;;;;;;;2.95;1.48;;;27.30;47.10;;;;;;6370019;22;20006;-76
2022/08/11 06:18:12;;;;;;;1.80;1.00;;;27.40;47.60;;;;;;6368833;22;20097;-75
2022/08/11 06:20:53;;;;;;;3.45;1.05;;;27.50;47.70;;;;;;6367757;22;20003;-75
2022/08/11 06:23:24;;;;;;;3.13;0.98;;;27.50;47.50;;;;;;6369812;22;20006;-75
2022/08/11 06:25:52;;;;;;;2.88;1.08;;;27.60;47.40;;;;;;6369919;22;20001;-74
2022/08/11 06:28:29;;;;;;;4.22;1.30;;;27.70;47.30;;;;;;6369408;22;20424;-74
2022/08/11 06:30:55;;;;;;;1.15;1.05;;;27.70;46.90;;;;;;6370095;22;20033;-74
2022/08/11 06:33:32;;;;;;;2.47;1.10;;;27.80;47.60;;;;;;6369363;22;20051;-74
2022/08/11 06:36:13;;;;;;;1.60;1.08;;;27.80;47.30;;;;;;6340422;22;19994;-74
2022/08/11 06:38:44;;;;;;;1.42;1.20;;;27.90;47.10;;;;;;6368953;22;20003;-74
2022/08/11 06:41:30;;;;;;;1.15;0.95;;;27.90;46.90;;;;;;6369302;22;19994;-74
2022/08/11 06:44:15;;;;;;;1.52;1.02;;;28.00;46.50;;;;;;6370005;22;20022;-74
2022/08/11 06:46:40;;;;;;;2.42;1.33;;;28.00;46.30;;;;;;6367776;22;19998;-74
2022/08/11 06:51:10;;;;;;;2.55;1.20;;;28.00;43.90;;;;;;6369001;22;20073;-74
2022/08/11 06:52:07;;;;;;;5.57;1.67;;;28.00;44.80;;;;;;6367816;22;20014;-74
2022/08/11 06:54:36;;;;;;;2.05;1.17;;;28.10;45.00;;;;;;6370054;22;20123;-72
2022/08/11 07:02:45;;;;;;;2.35;1.23;;;28.00;44.70;;;;;;6369205;22;20083;-76
2022/08/11 07:05:14;;;;;;;1.60;1.00;;;28.00;44.70;;;;;;6367407;22;20129;-73
2022/08/11 07:16:29;;;;;;;1.77;1.15;;;28.20;44.40;;;;;;6369786;22;20081;-74
2022/08/11 07:31:12;;;;;;;;;;;28.40;44.70;;;;;;6266673;22;20022;-80
2022/08/11 07:33:50;;;;;;;1.55;1.25;;;28.50;44.30;;;;;;6367521;22;19928;-80
2022/08/11 07:36:17;;;;;;;0.98;0.90;;;28.50;44.50;;;;;;6368777;22;20037;-74
2022/08/11 07:38:50;;;;;;;2.28;1.20;;;28.60;44.60;;;;;;6370082;22;20010;-74
2022/08/11 07:41:22;;;;;;;2.25;1.50;;;28.70;43.30;;;;;;6371630;22;20457;-74
2022/08/11 07:43:51;;;;;;;2.30;1.25;;;28.70;43.60;;;;;;6342555;22;20003;-74
2022/08/11 07:54:38;;;;;;;2.08;1.40;;;28.90;42.80;;;;;;6369433;22;20062;-80
2022/08/11 08:19:14;;;;;;;3.58;1.20;;;29.40;41.10;;;;;;6368457;22;20048;-80
2022/08/11 08:21:42;;;;;;;3.60;1.27;;;29.40;40.20;;;;;;6369006;22;19994;-81
2022/08/11 08:24:08;;;;;;;3.63;1.58;;;29.40;39.80;;;;;;6370430;22;19998;-81
2022/08/11 08:32:06;;;;;;;3.67;1.00;;;29.60;40.10;;;;;;6370362;22;20039;-74
2022/08/11 08:34:33;;;;;;;2.97;1.50;;;29.70;39.10;;;;;;6342049;22;20029;-74
2022/08/11 08:36:59;;;;;;;1.25;1.05;;;29.70;39.70;;;;;;6341273;22;20006;-74
2022/08/11 08:39:25;;;;;;;2.60;1.50;;;29.80;38.90;;;;;;6370308;22;20002;-74
2022/08/11 08:41:56;;;;;;;3.58;1.10;;;29.90;39.30;;;;;;6369697;22;20086;-74
2022/08/11 08:44:24;;;;;;;2.78;1.73;;;29.90;39.00;;;;;;6370173;22;19994;-74
2022/08/11 08:46:56;;;;;;;0.82;0.70;;;30.00;38.60;;;;;;6341374;22;20014;-74
2022/08/11 08:49:30;;;;;;;3.00;1.92;;;30.00;38.00;;;;;;6342371;22;20002;-74
2022/08/11 08:52:00;;;;;;;5.05;2.85;;;30.10;39.10;;;;;;6370614;22;20006;-74
2022/08/11 08:54:37;;;;;;;2.45;1.70;;;30.20;39.40;;;;;;6366492;22;20002;-74
2022/08/11 08:57:05;;;;;;;3.97;1.60;;;30.20;39.20;;;;;;6340860;22;20447;-74
2022/08/11 08:59:36;;;;;;;3.83;0.95;;;30.30;39.60;;;;;;6369148;22;19999;-74
2022/08/11 09:02:05;;;;;;;2.80;1.35;;;30.40;38.50;;;;;;6369551;22;20005;-74
2022/08/11 09:04:31;;;;;;;5.28;1.20;;;30.40;39.00;;;;;;6368571;22;19998;-74
2022/08/11 09:07:02;;;;;;;3.08;1.40;;;30.50;39.10;;;;;;6369540;22;20070;-74
2022/08/11 09:09:28;;;;;;;1.35;1.00;;;30.50;39.40;;;;;;6341157;22;20002;-74
2022/08/11 09:11:55;;;;;;;3.75;1.25;;;30.60;40.00;;;;;;6370298;22;20009;-74
2022/08/11 09:17:20;;;;;;;2.75;1.23;;;30.70;40.10;;;;;;6368810;22;20021;-74
2022/08/11 09:19:48;;;;;;;1.90;0.90;;;30.70;38.20;;;;;;6368706;22;20380;-73
2022/08/11 09:27:51;;;;;;;1.30;1.00;;;30.90;39.60;;;;;;6364364;22;20029;-84
2022/08/11 09:30:19;;;;;;;1.25;0.85;;;31.00;39.00;;;;;;6366840;22;20034;-83
2022/08/11 09:32:45;;;;;;;6.97;0.80;;;31.00;39.30;;;;;;6368318;22;20002;-84
2022/08/11 09:35:11;;;;;;;3.10;0.90;;;31.00;38.60;;;;;;6368221;22;20002;-84
2022/08/11 09:40:27;;;;;;;2.58;1.17;;;31.20;39.00;;;;;;6367238;22;20018;-82
2022/08/11 09:45:39;;;;;;;4.88;1.08;;;31.30;38.50;;;;;;6368989;22;20014;-80
2022/08/11 09:48:06;;;;;;;1.65;0.88;;;31.40;38.20;;;;;;6368980;22;20019;-81
2022/08/11 09:50:38;;;;;;;1.48;1.17;;;31.50;37.70;;;;;;6367288;22;20002;-81
2022/08/11 09:53:05;;;;;;;4.80;1.10;;;31.50;37.10;;;;;;6369483;22;20002;-82
2022/08/11 09:55:32;;;;;;;1.73;0.82;;;31.60;37.10;;;;;;6367361;22;20005;-82
2022/08/11 09:58:18;;;;;;;1.85;1.00;;;31.60;36.70;;;;;;6368778;22;20002;-82
2022/08/11 10:00:51;;;;;;;1.33;0.98;;;31.80;36.50;;;;;;6368129;22;20010;-83
2022/08/11 10:03:24;;;;;;;1.50;0.70;;;31.80;37.00;;;;;;6341175;22;20003;-83
2022/08/11 10:08:43;;;;;;;10.10;1.33;;;31.90;36.70;;;;;;6368130;22;20016;-80
2022/08/11 10:11:13;;;;;;;3.33;1.25;;;31.90;37.10;;;;;;6340932;22;20002;-81
2022/08/11 10:16:28;;;;;;;2.88;0.90;;;32.20;37.50;;;;;;6368183;22;19959;-81
2022/08/11 10:18:57;;;;;;;1.47;0.83;;;32.40;36.40;;;;;;6368287;22;19995;-81
2022/08/11 10:21:42;;;;;;;1.33;0.80;;;32.50;35.60;;;;;;6368055;22;19998;-79
2022/08/11 10:27:02;;;;;;;4.00;1.30;;;32.70;36.10;;;;;;6368063;22;20063;-80
2022/08/11 10:35:15;;;;;;;3.00;0.95;;;33.10;35.60;;;;;;6368310;22;20055;-81
2022/08/11 10:37:44;;;;;;;1.27;0.80;;;33.30;35.30;;;;;;6366865;22;20002;-80
2022/08/11 10:40:14;;;;;;;2.67;1.02;;;33.30;34.40;;;;;;6367681;22;20001;-80
2022/08/11 10:48:12;;;;;;;4.00;1.23;;;33.60;34.00;;;;;;6368465;22;20063;-80
2022/08/11 10:58:56;;;;;;;0.90;0.70;;;33.90;33.50;;;;;;6367415;22;20033;-79
2022/08/11 11:01:27;;;;;;;;;;;34.00;33.70;;;;;;6366318;22;20005;-81
2022/08/11 11:04:19;;;;;;;1.75;0.90;;;34.10;32.00;;;;;;6367809;22;19898;-79
2022/08/11 11:06:59;;;;;;;1.45;1.00;;;34.00;32.40;;;;;;6369982;22;20024;-81
2022/08/11 11:09:38;;;;;;;2.57;0.87;;;34.10;32.90;;;;;;6340982;22;20017;-81
2022/08/11 11:18:06;;;;;;;2.65;0.98;;;34.50;33.40;;;;;;6368059;22;20025;-83
2022/08/11 11:20:50;;;;;;;2.42;0.98;;;34.70;32.80;;;;;;6370025;22;20002;-84
2022/08/11 11:23:56;;;;;;;1.75;0.90;;;34.80;33.70;;;;;;6342720;22;20018;-83
2022/08/11 11:26:55;;;;;;;3.20;0.93;;;35.00;33.40;;;;;;6341540;22;20003;-81
2022/08/11 11:29:24;;;;;;;2.45;1.00;;;35.30;33.60;;;;;;6335391;22;20340;-81
2022/08/11 11:32:18;;;;;;;2.83;0.98;;;35.50;33.90;;;;;;6337029;22;20006;-83
2022/08/11 11:35:17;;;;;;;1.75;1.00;;;35.70;31.20;;;;;;6336902;22;20030;-83
2022/08/11 11:37:48;;;;;;;;;;;36.00;29.90;;;;;;6340367;22;20424;-83
2022/08/11 11:40:20;;;;;;;2.72;0.93;;;36.20;30.70;;;;;;6339297;22;19905;-83
2022/08/11 11:42:50;;;;;;;3.22;0.75;;;36.40;31.40;;;;;;6337805;22;20010;-83
2022/08/11 11:45:19;;;;;;;2.35;0.60;;;36.60;30.90;;;;;;6339239;22;20014;-82
2022/08/11 11:47:51;;;;;;;2.17;1.33;;;36.90;30.80;;;;;;6338535;22;20324;-82
2022/08/11 11:50:30;;;;;;;0.60;0.60;;;37.20;30.60;;;;;;6338893;22;20368;-83
2022/08/11 11:53:03;;;;;;;1.58;0.80;;;37.40;30.60;;;;;;6338121;22;20003;-83
2022/08/11 11:55:29;;;;;;;2.35;0.70;;;37.60;29.80;;;;;;6338575;22;20370;-79
2022/08/11 12:03:29;;;;;;;2.20;1.08;;;38.00;29.50;;;;;;6370660;22;20055;-80
2022/08/11 12:05:57;;;;;;;2.03;0.82;;;38.20;29.40;;;;;;6370931;22;19995;-80
2022/08/11 12:08:24;;;;;;;3.13;0.95;;;38.30;28.50;;;;;;6370193;22;20002;-80
2022/08/11 12:13:39;;;;;;;2.17;0.80;;;38.50;29.40;;;;;;6369613;22;20432;-80
2022/08/11 12:13:41;;;;;;;1.75;0.88;;;38.70;29.50;;;;;;6370559;22;20115;-81
2022/08/11 12:16:11;;;;;;;1.15;0.98;;;38.90;29.00;;;;;;6370147;22;20006;-80
2022/08/11 12:18:40;;;;;;;1.50;1.00;;;38.90;28.80;;;;;;6342201;22;20090;-79
2022/08/11 12:21:08;;;;;;;4.07;1.10;;;39.10;27.80;;;;;;6342877;22;20002;-80
2022/08/11 12:29:08;;;;;;;2.17;0.80;;;39.20;29.00;;;;;;6370166;22;20033;-80
2022/08/11 12:31:36;;;;;;;1.83;1.13;;;39.30;28.90;;;;;;6368190;22;20005;-80
2022/08/11 12:34:13;;;;;;;5.72;0.98;;;39.50;28.40;;;;;;6341257;22;20059;-80
2022/08/11 12:36:42;;;;;;;2.13;0.80;;;39.50;28.40;;;;;;6366661;22;20010;-80
2022/08/11 12:39:16;;;;;;;2.05;0.80;;;39.60;27.40;;;;;;6366171;22;20033;-80
2022/08/11 12:47:16;;;;;;;2.75;1.10;;;39.50;27.80;;;;;;6366755;22;20013;-79
2022/08/11 12:52:35;;;;;;;2.87;1.00;;;39.30;27.40;;;;;;6366631;22;20014;-79
2022/08/11 12:55:04;;;;;;;0.88;0.63;;;39.10;27.60;;;;;;6366281;22;20035;-79
2022/08/11 13:05:57;;;;;;;4.10;0.90;;;39.30;27.50;;;;;;6365295;22;20014;-80
2022/08/11 13:08:25;;;;;;;2.42;0.65;;;39.30;27.60;;;;;;6365532;22;20003;-80
2022/08/11 13:13:41;;;;;;;1.92;0.60;;;39.10;27.10;;;;;;6365950;22;20830;-80
2022/08/11 13:16:08;;;;;;;1.65;1.10;;;39.10;27.60;;;;;;6365440;22;20014;-80
2022/08/11 13:18:35;;;;;;;1.10;0.77;;;39.00;27.30;;;;;;6369091;22;20026;-79
2022/08/11 13:21:01;;;;;;;2.80;0.90;;;38.60;26.80;;;;;;6365730;22;20009;-80
2022/08/11 13:23:28;;;;;;;0.82;0.60;;;38.50;27.20;;;;;;6369184;22;19993;-80
2022/08/11 13:25:55;;;;;;;2.97;0.95;;;38.60;27.40;;;;;;6367494;22;20002;-80
2022/08/11 13:28:22;;;;;;;2.10;0.80;;;38.60;27.50;;;;;;6369447;22;20014;-80
2022/08/11 13:31:10;;;;;;;1.45;0.70;;;38.40;27.30;;;;;;6369100;22;20328;-80
2022/08/11 13:33:45;;;;;;;1.05;0.73;;;38.30;27.30;;;;;;6368183;22;19998;-80
2022/08/11 13:36:13;;;;;;;5.30;1.17;;;38.10;27.70;;;;;;6368336;22;20006;-79
2022/08/11 13:38:41;;;;;;;5.47;0.90;;;37.70;26.70;;;;;;6368745;22;20048;-79
2022/08/11 13:41:37;;;;;;;0.98;0.80;;;37.70;27.60;;;;;;6368575;22;20439;-79
2022/08/11 13:43:54;;;;;;;0.80;0.80;;;37.60;28.10;;;;;;6368162;22;20009;-79
2022/08/11 13:46:23;;;;;;;1.13;0.80;;;37.80;28.40;;;;;;6369370;22;20002;-79
2022/08/11 13:48:51;;;;;;;3.75;0.80;;;37.90;28.10;;;;;;6368956;22;19998;-79
2022/08/11 13:51:31;;;;;;;3.13;1.00;;;37.90;28.00;;;;;;6368816;22;20077;-79
2022/08/11 13:54:06;;;;;;;3.20;0.70;;;37.80;27.90;;;;;;6368915;22;20006;-79
2022/08/11 13:56:34;;;;;;;0.98;0.70;;;37.90;27.70;;;;;;6368967;22;20003;-79
2022/08/11 13:59:02;;;;;;;1.73;1.00;;;37.90;27.70;;;;;;6368993;22;20030;-80
2022/08/11 14:01:35;;;;;;;1.65;0.85;;;37.80;27.50;;;;;;6340523;22;20009;-79
2022/08/11 14:04:27;;;;;;;1.30;0.88;;;37.90;27.50;;;;;;6368155;22;20026;-79
2022/08/11 14:06:54;;;;;;;2.60;0.73;;;37.80;27.40;;;;;;6324275;22;20005;-80
2022/08/11 14:09:25;;;;;;;2.10;0.95;;;37.80;27.50;;;;;;6368974;22;20005;-80
2022/08/11 14:14:40;;;;;;;1.55;0.90;;;37.60;27.60;;;;;;6368976;22;20017;-81
2022/08/11 14:17:07;;;;;;;1.10;0.88;;;37.60;27.60;;;;;;6369742;22;19998;-79
2022/08/11 14:19:38;;;;;;;1.85;0.70;;;37.40;27.50;;;;;;6368977;22;20074;-80
2022/08/11 14:22:05;;;;;;;1.00;0.80;;;37.20;27.50;;;;;;6368977;22;19994;-79
2022/08/11 14:24:43;;;;;;;2.33;0.73;;;37.00;27.70;;;;;;6340607;22;20007;-79
2022/08/11 14:27:11;;;;;;;4.13;1.10;;;36.60;27.70;;;;;;6368840;22;20002;-79
2022/08/11 14:29:39;;;;;;;1.90;0.98;;;36.20;28.50;;;;;;6369407;22;20124;-79
2022/08/11 14:32:08;;;;;;;2.10;0.75;;;35.80;27.90;;;;;;6367956;22;20003;-79
2022/08/11 14:34:37;;;;;;;1.45;0.77;;;35.50;28.50;;;;;;6365311;22;19999;-80
2022/08/11 14:37:09;;;;;;;3.22;0.85;;;35.40;28.80;;;;;;6365442;22;20074;-79
2022/08/11 14:39:43;;;;;;;0.98;0.70;;;35.10;28.40;;;;;;6368284;22;20009;-79
2022/08/11 14:47:33;;;;;;;1.50;0.85;;;34.80;29.10;;;;;;6369066;22;20086;-80
2022/08/11 14:50:01;;;;;;;1.90;1.00;;;34.70;29.00;;;;;;6368903;22;20370;-80
2022/08/11 14:52:30;;;;;;;2.58;0.70;;;34.60;29.10;;;;;;6368219;22;20530;-80
2022/08/11 14:57:41;;;;;;;2.67;0.70;;;34.50;29.10;;;;;;6364630;22;20018;-80
2022/08/11 15:00:11;;;;;;;0.82;0.80;;;34.40;29.00;;;;;;6368581;22;19998;-80
2022/08/11 15:05:24;;;;;;;3.15;0.75;;;34.10;29.00;;;;;;6367322;22;20135;-79
2022/08/11 15:07:52;;;;;;;1.00;0.60;;;34.10;29.20;;;;;;6367137;22;20077;-80
2022/08/11 15:10:19;;;;;;;1.13;0.60;;;34.00;29.30;;;;;;6367202;22;20006;-80
2022/08/11 15:12:45;;;;;;;1.67;0.90;;;34.00;29.40;;;;;;6339852;22;20029;-80
2022/08/11 15:18:00;;;;;;;2.22;0.90;;;33.80;29.80;;;;;;6364998;22;20089;-79
2022/08/11 15:26:18;;;;;;;1.35;0.77;;;33.70;30.00;;;;;;6367293;22;20086;-79
2022/08/11 15:45:50;;;;;;;2.03;1.00;;;33.40;29.80;;;;;;6365829;22;20010;-80
2022/08/11 15:48:27;;;;;;;3.58;0.70;;;33.40;30.20;;;;;;6366248;22;20054;-80
2022/08/11 15:50:56;;;;;;;1.85;1.27;;;33.40;30.80;;;;;;6367545;22;20100;-80
2022/08/11 15:53:38;;;;;;;7.03;1.53;;;33.30;31.20;;;;;;6366695;22;20090;-81
2022/08/11 15:56:05;;;;;;;2.83;1.42;;;33.20;31.50;;;;;;6364445;22;20011;-81
2022/08/11 16:04:19;;;;;;;3.95;0.90;;;33.00;31.90;;;;;;6366740;22;20009;-81
2022/08/11 16:07:02;;;;;;;1.83;0.90;;;33.00;31.50;;;;;;6366196;22;20017;-81
2022/08/11 16:09:43;;;;;;;2.03;0.82;;;33.00;31.40;;;;;;6364143;22;20006;-82
2022/08/11 16:12:13;;;;;;;0.70;0.70;;;33.00;31.30;;;;;;6366948;22;20439;-82
2022/08/11 16:17:30;;;;;;;2.92;1.20;;;32.90;31.30;;;;;;6366454;22;20021;-83
2022/08/11 16:19:58;;;;;;;1.40;1.05;;;32.80;31.10;;;;;;6367758;22;20021;-83
2022/08/11 16:22:35;;;;;;;1.15;0.88;;;32.80;31.30;;;;;;6369428;22;19994;-82
2022/08/11 16:25:09;;;;;;;2.25;0.90;;;32.80;31.20;;;;;;6369937;22;20069;-81
2022/08/11 16:27:45;;;;;;;1.00;0.90;;;32.70;30.20;;;;;;6369907;22;20007;-81
2022/08/11 16:30:13;;;;;;;1.67;0.80;;;32.80;30.40;;;;;;6369186;22;19994;-83
2022/08/11 16:32:42;;;;;;;1.92;0.88;;;32.80;30.60;;;;;;6368430;22;20015;-81
2022/08/11 16:40:50;;;;;;;3.90;1.10;;;32.80;29.90;;;;;;6369230;22;20404;-81
2022/08/11 16:46:58;;;;;;;3.67;0.98;;;32.90;29.70;;;;;;6368868;22;20013;-81
2022/08/11 16:49:23;;;;;;;;;;;33.00;30.10;;;;;;6368877;22;20428;-81
2022/08/11 16:51:50;;;;;;;1.20;0.88;;;33.00;31.10;;;;;;6368423;22;19898;-81
2022/08/11 16:54:16;;;;;;;3.42;1.27;;;33.00;31.10;;;;;;6367970;22;20022;-80
2022/08/11 16:56:49;;;;;;;1.92;1.25;;;33.00;31.40;;;;;;6368210;22;20014;-80
2022/08/11 16:59:37;;;;;;;1.90;0.82;;;32.90;31.90;;;;;;6368324;22;20002;-79
2022/08/11 17:13:07;;;;;;;2.08;0.70;;;32.80;32.10;;;;;;6340776;22;20412;-80
2022/08/11 17:13:41;;;;;;;3.08;0.88;;;32.60;32.50;;;;;;6366360;22;20086;-80
2022/08/11 17:16:11;;;;;;;3.58;0.90;;;32.50;32.40;;;;;;6367770;22;19999;-79
2022/08/11 17:18:42;;;;;;;;;;;32.50;32.40;;;;;;6367184;22;20432;-80
2022/08/11 17:21:32;;;;;;;0.70;0.70;;;32.40;32.40;;;;;;6366347;22;19898;-80
2022/08/11 17:24:00;;;;;;;;;;;32.30;32.50;;;;;;6367712;22;20002;-80
2022/08/11 17:29:16;;;;;;;1.60;1.20;;;32.30;31.80;;;;;;5131763;27;20367;-79
2022/08/11 17:37:14;;;;;;;0.82;0.60;;;32.00;32.60;;;;;;5126917;28;20030;-80
2022/08/11 17:39:41;;;;;;;1.20;0.98;;;32.00;32.90;;;;;;5110188;28;20032;-80
2022/08/11 17:50:25;;;;;;;2.45;1.75;;;31.70;32.30;;;;;;5100405;28;20520;-80
2022/08/11 18:01:19;;;;;;;3.15;0.98;;;31.60;32.80;;;;;;5110637;28;20042;-79
2022/08/11 18:03:48;;;;;;;8.30;3.55;;;31.50;33.00;;;;;;5087798;28;20081;-79
2022/08/11 18:06:17;;;;;;;3.88;2.10;;;31.50;33.50;;;;;;5076653;28;20038;-79
